createdAt,value
2022-12-24T00:01:37.461Z,100460.56
2022-12-24T00:04:06.349Z,100466.66
2022-12-24T00:06:34.821Z,100466.72
2022-12-24T00:09:05.152Z,100468.53
2022-12-24T00:11:33.590Z,100472.88
2022-12-24T00:14:01.948Z,100457.97
2022-12-24T00:16:30.339Z,100473.81
2022-12-24T00:18:58.716Z,100477.25
2022-12-24T00:21:27.094Z,100472.03
2022-12-24T00:23:55.400Z,100485.97
2022-12-24T00:26:25.130Z,100478.72
2022-12-24T00:28:53.477Z,100480.56
2022-12-24T00:31:21.896Z,100488.56
2022-12-24T00:33:51.021Z,100453.63
2022-12-24T00:36:21.148Z,100487.09
2022-12-24T00:38:49.607Z,100482.81
2022-12-24T00:41:29.044Z,100458.38
2022-12-24T00:44:02.184Z,100475.06
2022-12-24T00:46:32.776Z,100510.03
2022-12-24T00:49:01.411Z,100515.34
2022-12-24T00:51:30.658Z,100506.56
2022-12-24T00:53:59.473Z,100505.00
2022-12-24T00:56:28.517Z,100536.56
2022-12-24T00:58:58.559Z,100520.66
2022-12-24T01:01:27.743Z,100531.22
2022-12-24T01:04:17.384Z,100509.41
2022-12-24T01:06:44.798Z,100533.19
2022-12-24T01:09:13.179Z,100545.44
2022-12-24T01:11:41.657Z,100541.84
2022-12-24T01:14:11.345Z,100552.41
2022-12-24T01:16:40.141Z,100525.31
2022-12-24T01:19:08.853Z,100548.06
2022-12-24T01:21:37.358Z,100561.22
2022-12-24T01:24:06.127Z,100557.81
2022-12-24T01:26:34.667Z,100558.56
2022-12-24T01:29:02.980Z,100537.41
2022-12-24T01:31:32.743Z,100553.03
2022-12-24T01:34:01.130Z,100523.38
2022-12-24T01:36:29.596Z,100566.34
2022-12-24T01:38:58.173Z,100579.59
2022-12-24T01:41:44.389Z,100573.44
2022-12-24T01:44:33.153Z,100578.75
2022-12-24T01:47:12.282Z,100578.81
2022-12-24T01:49:46.858Z,100549.81
2022-12-24T01:52:20.822Z,100569.09
2022-12-24T01:54:54.762Z,100571.81
2022-12-24T01:57:26.641Z,100585.88
2022-12-24T01:59:59.760Z,100588.53
2022-12-24T02:02:31.032Z,100587.59
2022-12-24T02:05:04.911Z,100594.69
2022-12-24T02:07:33.574Z,100597.34
2022-12-24T02:10:03.196Z,100604.44
2022-12-24T02:12:36.224Z,100607.91
2022-12-24T02:15:05.923Z,100598.25
2022-12-24T02:17:43.036Z,100609.56
2022-12-24T02:20:47.586Z,100616.53
2022-12-24T02:24:01.728Z,100615.56
2022-12-24T02:26:54.761Z,100602.41
2022-12-24T02:30:05.428Z,100626.16
2022-12-24T02:32:44.813Z,100624.28
2022-12-24T02:35:20.934Z,100621.63
2022-12-24T02:37:54.653Z,100583.91
2022-12-24T02:40:28.357Z,100624.28
2022-12-24T02:43:02.521Z,100617.19
2022-12-24T02:45:34.293Z,100576.81
2022-12-24T02:48:03.128Z,100625.13
2022-12-24T02:50:31.478Z,100628.59
2022-12-24T02:52:59.841Z,100629.53
2022-12-24T02:55:40.365Z,100627.97
2022-12-24T02:58:26.935Z,100636.69
2022-12-24T03:01:16.784Z,100621.88
2022-12-24T03:04:02.682Z,100636.72
2022-12-24T03:06:42.129Z,100636.75
2022-12-24T03:09:19.837Z,100637.47
2022-12-24T03:11:59.929Z,100618.47
2022-12-24T03:14:30.026Z,100660.56
2022-12-24T03:17:03.094Z,100661.41
2022-12-24T03:19:32.989Z,100658.75
2022-12-24T03:22:05.078Z,100566.59
2022-12-24T03:24:33.476Z,100628.81
2022-12-24T03:27:03.109Z,100656.09
2022-12-24T03:29:31.575Z,100670.97
2022-12-24T03:32:05.028Z,100671.06
2022-12-24T03:34:33.708Z,100668.44
2022-12-24T03:37:02.078Z,100666.75
2022-12-24T03:39:30.417Z,100655.31
2022-12-24T03:41:58.736Z,100659.69
2022-12-24T03:44:27.088Z,100682.66
2022-12-24T03:46:55.380Z,100656.16
2022-12-24T03:49:25.046Z,100656.94
2022-12-24T03:51:53.325Z,100665.81
2022-12-24T03:54:21.765Z,100660.59
2022-12-24T03:56:50.122Z,100665.78
2022-12-24T03:59:18.515Z,100666.63
2022-12-24T04:01:47.069Z,100671.06
2022-12-24T04:04:15.656Z,100663.19
2022-12-24T04:06:45.463Z,100586.97
2022-12-24T04:09:13.791Z,100676.38
2022-12-24T04:11:42.148Z,100674.63
2022-12-24T04:14:10.584Z,100654.53
2022-12-24T04:16:39.176Z,100671.06
2022-12-24T04:19:07.594Z,100674.50
2022-12-24T04:21:35.996Z,100673.72
2022-12-24T04:24:06.627Z,100676.44
2022-12-24T04:26:35.027Z,100689.56
2022-12-24T04:29:03.419Z,100696.66
2022-12-24T04:31:31.836Z,100687.88
2022-12-24T04:34:00.405Z,100695.00
2022-12-24T04:36:28.775Z,100609.91
2022-12-24T04:38:57.144Z,100701.19
2022-12-24T04:41:27.060Z,100702.94
2022-12-24T04:43:56.872Z,100712.63
2022-12-24T04:46:30.549Z,100700.19
2022-12-24T04:48:59.667Z,100698.50
2022-12-24T04:51:29.209Z,100698.50
2022-12-24T04:53:58.399Z,100717.91
2022-12-24T04:56:31.136Z,100706.44
2022-12-24T04:59:00.774Z,100698.56
2022-12-24T05:01:31.845Z,100710.88
2022-12-24T05:04:00.807Z,100713.44
2022-12-24T05:06:33.168Z,100715.28
2022-12-24T05:09:01.790Z,100723.22
2022-12-24T05:11:32.256Z,100717.94
2022-12-24T05:14:00.834Z,100735.59
2022-12-24T05:16:29.275Z,100735.50
2022-12-24T05:18:57.765Z,100709.91
2022-12-24T05:21:26.863Z,100733.69
2022-12-24T05:24:12.509Z,100725.72
2022-12-24T05:26:44.983Z,100726.59
2022-12-24T05:29:14.062Z,100708.22
2022-12-24T05:31:45.120Z,100717.78
2022-12-24T05:34:15.239Z,100723.00
2022-12-24T05:36:44.072Z,100723.88
2022-12-24T05:39:16.409Z,100707.31
2022-12-24T05:41:48.169Z,100734.56
2022-12-24T05:44:17.595Z,100710.03
2022-12-24T05:46:46.079Z,100740.69
2022-12-24T05:49:15.133Z,100736.38
2022-12-24T05:51:43.876Z,100742.53
2022-12-24T05:54:12.374Z,100711.81
2022-12-24T05:56:40.757Z,100742.69
2022-12-24T05:59:10.584Z,100751.38
2022-12-24T06:01:39.078Z,100749.66
2022-12-24T06:04:07.529Z,100731.34
2022-12-24T06:06:35.841Z,100735.81
2022-12-24T06:09:04.180Z,100627.19
2022-12-24T06:11:32.866Z,100779.00
2022-12-24T06:14:01.274Z,100725.53
2022-12-24T06:16:30.996Z,100780.78
2022-12-24T06:18:59.353Z,100786.09
2022-12-24T06:21:27.706Z,100776.38
2022-12-24T06:23:56.016Z,100783.44
2022-12-24T06:26:24.645Z,100786.97
2022-12-24T06:28:53.227Z,100791.41
2022-12-24T06:31:24.312Z,100777.44
2022-12-24T06:33:54.499Z,100792.38
2022-12-24T06:36:25.898Z,100702.81
2022-12-24T06:38:55.465Z,100780.94
2022-12-24T06:41:24.865Z,100758.97
2022-12-24T06:43:54.889Z,100788.84
2022-12-24T06:46:24.139Z,100790.63
2022-12-24T06:48:55.172Z,100795.09
2022-12-24T06:51:23.887Z,100793.41
2022-12-24T06:53:52.460Z,100803.13
2022-12-24T06:56:22.000Z,100805.75
2022-12-24T06:58:50.445Z,100807.59
2022-12-24T07:01:21.513Z,100704.09
2022-12-24T07:03:50.195Z,100824.41
2022-12-24T07:06:26.350Z,100814.69
2022-12-24T07:08:54.890Z,100819.13
2022-12-24T07:11:24.526Z,100811.16
2022-12-24T07:13:53.113Z,100814.69
2022-12-24T07:16:21.819Z,100818.22
2022-12-24T07:18:50.185Z,100739.19
2022-12-24T07:21:19.884Z,100827.03
2022-12-24T07:23:48.318Z,100831.41
2022-12-24T07:26:16.675Z,100839.34
2022-12-24T07:28:45.073Z,100846.34
2022-12-24T07:31:13.535Z,100836.75
2022-12-24T07:33:41.957Z,100842.03
2022-12-24T07:36:17.012Z,100839.41
2022-12-24T07:38:46.781Z,100854.38
2022-12-24T07:41:15.712Z,100866.75
2022-12-24T07:43:44.126Z,100871.22
2022-12-24T07:46:12.700Z,100881.81
2022-12-24T07:48:41.202Z,100889.72
2022-12-24T07:51:09.629Z,100815.94
2022-12-24T07:53:37.976Z,100901.19
2022-12-24T07:56:12.890Z,100904.72
2022-12-24T07:58:41.678Z,100898.56
2022-12-24T08:01:12.924Z,100907.34
2022-12-24T08:03:41.627Z,100828.22
2022-12-24T08:06:10.466Z,100909.94
2022-12-24T08:08:39.454Z,100900.22
2022-12-24T08:11:09.373Z,100905.47
2022-12-24T08:13:37.677Z,100913.44
2022-12-24T08:16:06.943Z,100915.16
2022-12-24T08:18:35.892Z,100914.34
2022-12-24T08:21:04.764Z,100922.19
2022-12-24T08:23:33.067Z,100929.16
2022-12-24T08:26:01.452Z,100825.56
2022-12-24T08:28:31.323Z,100940.75
2022-12-24T08:31:01.226Z,100944.25
2022-12-24T08:33:29.714Z,100942.50
2022-12-24T08:35:58.120Z,100959.31
2022-12-24T08:38:26.573Z,100920.56
2022-12-24T08:40:55.964Z,100948.75
2022-12-24T08:43:26.689Z,100943.38
2022-12-24T08:45:56.310Z,100970.72
2022-12-24T08:48:24.792Z,100955.75
2022-12-24T08:50:53.109Z,100976.88
2022-12-24T08:53:21.573Z,100981.31
2022-12-24T08:55:55.625Z,100987.44
2022-12-24T08:58:24.535Z,100899.56
2022-12-24T09:00:53.107Z,100993.63
2022-12-24T09:03:27.473Z,101001.56
2022-12-24T09:05:56.871Z,100969.94
2022-12-24T09:08:25.168Z,100995.38
2022-12-24T09:10:53.542Z,100994.44
2022-12-24T09:13:21.879Z,100998.91
2022-12-24T09:15:55.628Z,100997.16
2022-12-24T09:18:25.525Z,101000.66
2022-12-24T09:21:00.074Z,100987.47
2022-12-24T09:23:28.772Z,101016.53
2022-12-24T09:25:57.622Z,101018.28
2022-12-24T09:28:26.075Z,101010.34
2022-12-24T09:30:59.932Z,101021.81
2022-12-24T09:33:31.665Z,101030.56
2022-12-24T09:36:01.427Z,100927.59
2022-12-24T09:38:30.620Z,101039.28
2022-12-24T09:41:05.448Z,101023.44
2022-12-24T09:43:39.018Z,101032.13
2022-12-24T09:46:15.007Z,101048.06
2022-12-24T09:48:50.852Z,101036.56
2022-12-24T09:51:31.517Z,100876.44
2022-12-24T09:54:04.674Z,101042.72
2022-12-24T09:56:39.341Z,101062.13
2022-12-24T09:59:11.900Z,101030.47
2022-12-24T10:01:40.456Z,101061.31
2022-12-24T10:04:15.151Z,101055.94
2022-12-24T10:06:53.444Z,101070.06
2022-12-24T10:09:34.210Z,101055.88
2022-12-24T10:12:10.748Z,101045.28
2022-12-24T10:14:57.728Z,100977.28
2022-12-24T10:17:47.983Z,101053.56
2022-12-24T10:20:50.588Z,101035.75
2022-12-24T10:23:30.195Z,101058.72
2022-12-24T10:26:12.832Z,101071.69
2022-12-24T10:28:48.781Z,101071.44
2022-12-24T10:31:17.300Z,101064.19
2022-12-24T10:33:51.604Z,101055.03
2022-12-24T10:36:26.283Z,101092.00
2022-12-24T10:38:54.919Z,101082.34
2022-12-24T10:41:24.598Z,101087.84
2022-12-24T10:43:53.063Z,101093.25
2022-12-24T10:46:24.831Z,101089.75
2022-12-24T10:48:57.588Z,101092.56
2022-12-24T10:51:38.929Z,100976.53
2022-12-24T10:54:11.692Z,101071.41
2022-12-24T10:56:44.679Z,101089.78
2022-12-24T10:59:26.846Z,101069.59
2022-12-24T11:01:56.755Z,101095.94
2022-12-24T11:04:27.801Z,101072.25
2022-12-24T11:06:59.951Z,101106.66
2022-12-24T11:09:31.564Z,101107.50
2022-12-24T11:12:08.407Z,101075.63
2022-12-24T11:14:40.446Z,101098.50
2022-12-24T11:17:11.622Z,101090.63
2022-12-24T11:19:41.027Z,101113.59
2022-12-24T11:22:23.790Z,101103.63
2022-12-24T11:25:02.630Z,101106.38
2022-12-24T11:27:44.294Z,101073.84
2022-12-24T11:30:33.248Z,101080.91
2022-12-24T11:33:22.496Z,101101.22
2022-12-24T11:35:57.738Z,101103.13
2022-12-24T11:38:29.786Z,101116.31
2022-12-24T11:41:05.592Z,101112.03
2022-12-24T11:43:47.942Z,101119.13
2022-12-24T11:46:21.858Z,101116.22
2022-12-24T11:49:08.265Z,101088.81
2022-12-24T11:51:37.652Z,101110.00
2022-12-24T11:54:22.682Z,101118.06
2022-12-24T11:56:55.308Z,101137.59
2022-12-24T11:59:31.051Z,101133.88
2022-12-24T12:02:05.759Z,101044.06
2022-12-24T12:04:36.819Z,101121.31
2022-12-24T12:07:18.831Z,101122.16
2022-12-24T12:09:53.306Z,101137.16
2022-12-24T12:12:27.532Z,101129.16
2022-12-24T12:14:59.365Z,101136.16
2022-12-24T12:17:34.032Z,101124.75
2022-12-24T12:20:12.021Z,101045.72
2022-12-24T12:22:50.077Z,101129.25
2022-12-24T12:25:33.345Z,101143.31
2022-12-24T12:28:05.088Z,101135.38
2022-12-24T12:30:37.044Z,101132.91
2022-12-24T12:33:18.684Z,101143.47
2022-12-24T12:35:48.428Z,101148.81
2022-12-24T12:38:23.148Z,101134.50
2022-12-24T12:41:17.457Z,101152.81
2022-12-24T12:44:28.836Z,101166.91
2022-12-24T12:47:15.680Z,101174.97
2022-12-24T12:49:55.501Z,101173.16
2022-12-24T12:52:41.260Z,101169.81
2022-12-24T12:55:27.779Z,101168.94
2022-12-24T12:58:02.293Z,101160.06
2022-12-24T13:00:38.716Z,101163.47
2022-12-24T13:04:15.587Z,101150.22
2022-12-24T13:07:16.378Z,101160.75
2022-12-24T13:10:15.832Z,101102.66
2022-12-24T13:13:18.509Z,101172.88
2022-12-24T13:16:13.296Z,101182.53
2022-12-24T13:19:05.008Z,101186.25
2022-12-24T13:21:34.354Z,101193.31
2022-12-24T13:24:17.727Z,101195.97
2022-12-24T13:27:06.695Z,101194.06
2022-12-24T13:29:53.873Z,101182.66
2022-12-24T13:32:51.377Z,101192.19
2022-12-24T13:35:38.701Z,101182.56
2022-12-24T13:38:43.649Z,101195.84
2022-12-24T13:41:55.036Z,101201.06
2022-12-24T13:44:36.014Z,101213.41
2022-12-24T13:47:32.365Z,101217.66
2022-12-24T13:50:23.120Z,101211.44
2022-12-24T13:52:54.178Z,101205.19
2022-12-24T13:55:23.816Z,101191.06
2022-12-24T13:57:58.703Z,101218.44
2022-12-24T14:00:41.995Z,101198.09
2022-12-24T14:03:30.818Z,101208.53
2022-12-24T14:06:02.816Z,101169.75
2022-12-24T14:08:38.665Z,101203.16
2022-12-24T14:11:14.887Z,101207.66
2022-12-24T14:13:55.197Z,101200.47
2022-12-24T14:16:25.326Z,101183.69
2022-12-24T14:19:04.858Z,101185.44
2022-12-24T14:21:37.617Z,101209.03
2022-12-24T14:24:16.586Z,101211.72
2022-12-24T14:26:49.351Z,101209.00
2022-12-24T14:29:25.234Z,101209.13
2022-12-24T14:31:54.029Z,101216.00
2022-12-24T14:34:23.894Z,101221.34
2022-12-24T14:36:56.084Z,101214.38
2022-12-24T14:39:32.404Z,101216.16
2022-12-24T14:42:22.752Z,101230.31
2022-12-24T14:45:02.836Z,101227.84
2022-12-24T14:47:39.931Z,101235.06
2022-12-24T14:50:45.141Z,101236.84
2022-12-24T14:53:37.050Z,101242.28
2022-12-24T14:56:15.708Z,101241.66
2022-12-24T14:58:46.690Z,101238.25
2022-12-24T15:01:25.303Z,101241.03
2022-12-24T15:04:05.976Z,101236.72
2022-12-24T15:06:38.625Z,101252.66
2022-12-24T15:09:12.414Z,101269.50
2022-12-24T15:11:44.934Z,101242.94
2022-12-24T15:14:14.672Z,101238.75
2022-12-24T15:16:43.507Z,101245.00
2022-12-24T15:19:22.191Z,101254.97
2022-12-24T15:21:52.018Z,101256.91
2022-12-24T15:24:30.076Z,101258.72
2022-12-24T15:26:58.441Z,101253.53
2022-12-24T15:29:29.589Z,101266.84
2022-12-24T15:32:00.008Z,101261.63
2022-12-24T15:34:31.153Z,101265.19
2022-12-24T15:37:08.359Z,101258.25
2022-12-24T15:39:37.059Z,101195.84
2022-12-24T15:42:14.449Z,101278.63
2022-12-24T15:44:49.355Z,101282.25
2022-12-24T15:47:22.441Z,101194.19
2022-12-24T15:49:53.343Z,101283.19
2022-12-24T15:52:25.592Z,101277.88
2022-12-24T15:54:57.949Z,101277.06
2022-12-24T15:57:31.895Z,101282.41
2022-12-24T16:00:02.416Z,101276.25
2022-12-24T16:02:40.307Z,101275.41
2022-12-24T16:05:37.151Z,101281.66
2022-12-24T16:08:25.703Z,101278.97
2022-12-24T16:11:13.233Z,101230.53
2022-12-24T16:13:45.173Z,101288.72
2022-12-24T16:16:16.624Z,101284.28
2022-12-24T16:18:53.913Z,101306.56
2022-12-24T16:21:27.665Z,101285.28
2022-12-24T16:23:59.904Z,101292.38
2022-12-24T16:26:28.312Z,101290.59
2022-12-24T16:28:57.119Z,101295.03
2022-12-24T16:31:33.766Z,101297.72
2022-12-24T16:34:03.509Z,101258.84
2022-12-24T16:36:33.044Z,101283.53
2022-12-24T16:39:20.553Z,101287.09
2022-12-24T16:42:06.764Z,101287.09
2022-12-24T16:44:35.198Z,101273.03
2022-12-24T16:47:03.674Z,101271.19
2022-12-24T16:49:32.200Z,101270.31
2022-12-24T16:52:00.555Z,101269.41
2022-12-24T16:54:30.941Z,101273.00
2022-12-24T16:56:59.349Z,101276.50
2022-12-24T16:59:27.753Z,101279.16
2022-12-24T17:01:56.623Z,101281.94
2022-12-24T17:04:25.191Z,101270.41
2022-12-24T17:06:53.492Z,101276.59
2022-12-24T17:09:21.800Z,101286.41
2022-12-24T17:11:51.476Z,101279.38
2022-12-24T17:14:21.033Z,101291.72
2022-12-24T17:16:49.629Z,101284.72
2022-12-24T17:19:20.802Z,101283.81
2022-12-24T17:21:49.974Z,101276.72
2022-12-24T17:24:18.410Z,101272.31
2022-12-24T17:26:46.818Z,101247.63
2022-12-24T17:29:17.051Z,101299.78
2022-12-24T17:31:45.428Z,101267.13
2022-12-24T17:34:13.715Z,101258.38
2022-12-24T17:36:42.630Z,101241.63
2022-12-24T17:39:10.917Z,101258.47
2022-12-24T17:41:39.212Z,101252.28
2022-12-24T17:44:08.968Z,101262.03
2022-12-24T17:46:39.074Z,101228.53
2022-12-24T17:49:07.836Z,101260.28
2022-12-24T17:51:40.254Z,101263.78
2022-12-24T17:54:13.356Z,101256.66
2022-12-24T17:56:41.910Z,101261.06
2022-12-24T17:59:10.846Z,101226.66
2022-12-24T18:01:40.621Z,101263.66
2022-12-24T18:04:09.010Z,101272.50
2022-12-24T18:06:44.141Z,101266.31
2022-12-24T18:09:15.764Z,101284.91
2022-12-24T18:11:44.162Z,101265.47
2022-12-24T18:14:14.208Z,101250.50
2022-12-24T18:16:49.088Z,101270.75
2022-12-24T18:19:17.540Z,101251.41
2022-12-24T18:21:45.873Z,101267.25
2022-12-24T18:24:14.430Z,101260.19
2022-12-24T18:26:45.125Z,101270.84
2022-12-24T18:29:13.842Z,101264.66
2022-12-24T18:31:43.611Z,101266.41
2022-12-24T18:34:15.270Z,101269.94
2022-12-24T18:36:43.802Z,101251.34
2022-12-24T18:39:12.248Z,101267.22
2022-12-24T18:41:40.656Z,101257.53
2022-12-24T18:44:10.759Z,101257.50
2022-12-24T18:46:39.195Z,101270.72
2022-12-24T18:49:11.602Z,101266.34
2022-12-24T18:51:39.957Z,101269.84
2022-12-24T18:54:08.611Z,101241.59
2022-12-24T18:56:36.929Z,101279.53
2022-12-24T18:59:05.267Z,101271.59
2022-12-24T19:01:35.995Z,101247.88
2022-12-24T19:04:04.934Z,101268.06
2022-12-24T19:06:34.660Z,101251.41
2022-12-24T19:09:03.192Z,101247.88
2022-12-24T19:11:34.058Z,101286.72
2022-12-24T19:14:04.486Z,101293.75
2022-12-24T19:16:36.673Z,101284.03
2022-12-24T19:19:06.848Z,101286.69
2022-12-24T19:21:37.123Z,101269.00
2022-12-24T19:24:07.339Z,101277.81
2022-12-24T19:26:35.721Z,101284.91
2022-12-24T19:29:04.017Z,101280.50
2022-12-24T19:31:33.146Z,101266.44
2022-12-24T19:34:02.093Z,101292.91
2022-12-24T19:36:32.184Z,101277.00
2022-12-24T19:39:01.917Z,101284.13
2022-12-24T19:41:31.646Z,101285.88
2022-12-24T19:44:03.032Z,101292.91
2022-12-24T19:46:36.183Z,101292.06
2022-12-24T19:49:08.418Z,101278.78
2022-12-24T19:51:37.178Z,101270.84
2022-12-24T19:54:13.385Z,101284.09
2022-12-24T19:56:45.102Z,101279.69
2022-12-24T19:59:13.489Z,101285.84
2022-12-24T20:01:41.922Z,101285.81
2022-12-24T20:04:10.507Z,101275.22
2022-12-24T20:06:39.433Z,101268.16
2022-12-24T20:09:11.963Z,101255.78
2022-12-24T20:11:40.391Z,101250.53
2022-12-24T20:14:08.907Z,101262.84
2022-12-24T20:16:37.425Z,101255.81
2022-12-24T20:19:07.910Z,101256.72
2022-12-24T20:21:37.959Z,101253.19
2022-12-24T20:24:08.681Z,101249.63
2022-12-24T20:26:37.552Z,101248.75
2022-12-24T20:29:08.499Z,101239.06
2022-12-24T20:31:38.055Z,101236.41
2022-12-24T20:34:07.558Z,101233.78
2022-12-24T20:36:37.155Z,101229.38
2022-12-24T20:39:10.939Z,101243.44
2022-12-24T20:41:39.378Z,101229.28
2022-12-24T20:44:07.726Z,101246.16
2022-12-24T20:46:36.196Z,101233.78
2022-12-24T20:49:05.293Z,101246.13
2022-12-24T20:51:33.747Z,101225.00
2022-12-24T20:54:02.716Z,101251.50
2022-12-24T20:56:32.722Z,101253.31
2022-12-24T20:59:02.656Z,101248.91
2022-12-24T21:01:31.529Z,101240.09
2022-12-24T21:04:04.948Z,101229.50
2022-12-24T21:06:34.298Z,101240.91
2022-12-24T21:09:03.216Z,101246.22
2022-12-24T21:11:50.745Z,101240.06
2022-12-24T21:14:22.296Z,101235.59
2022-12-24T21:16:52.271Z,101255.94
2022-12-24T21:19:24.477Z,101255.06
2022-12-24T21:21:53.021Z,101254.19
2022-12-24T21:24:21.357Z,101235.66
2022-12-24T21:26:50.992Z,101240.94
2022-12-24T21:29:19.354Z,101248.88
2022-12-24T21:31:48.308Z,101240.94
2022-12-24T21:34:16.858Z,101229.47
2022-12-24T21:36:46.239Z,101233.84
2022-12-24T21:39:14.561Z,101217.06
2022-12-24T21:41:43.183Z,101209.13
2022-12-24T21:44:12.860Z,101223.25
2022-12-24T21:46:41.168Z,101208.25
2022-12-24T21:49:29.008Z,101212.69
2022-12-24T21:51:57.359Z,101223.28
2022-12-24T21:54:27.296Z,101207.41
2022-12-24T21:57:17.388Z,101213.59
2022-12-24T21:59:47.777Z,101222.41
2022-12-24T22:02:17.411Z,101202.97
2022-12-24T22:04:46.447Z,101220.59
2022-12-24T22:07:40.571Z,101214.41
2022-12-24T22:10:27.734Z,101221.50
2022-12-24T22:12:56.661Z,101211.78
2022-12-24T22:15:27.210Z,101219.72
2022-12-24T22:17:55.563Z,101232.09
2022-12-24T22:20:23.963Z,101232.97
2022-12-24T22:22:52.283Z,101228.53
2022-12-24T22:25:20.701Z,101213.53
2022-12-24T22:27:48.996Z,101232.06
2022-12-24T22:30:17.425Z,101232.09
2022-12-24T22:32:47.159Z,101228.53
2022-12-24T22:35:15.659Z,101244.47
2022-12-24T22:37:43.976Z,101234.75
2022-12-24T22:40:13.477Z,101239.16
2022-12-24T22:42:41.931Z,101240.06
2022-12-24T22:45:16.942Z,101250.66
2022-12-24T22:47:49.901Z,101213.53
2022-12-24T22:50:18.494Z,101262.09
2022-12-24T22:52:46.793Z,101235.59
2022-12-24T22:55:15.102Z,101235.56
2022-12-24T22:57:43.424Z,101244.38
2022-12-24T23:00:18.107Z,101244.41
2022-12-24T23:02:46.509Z,101256.78
2022-12-24T23:05:18.470Z,101245.25
2022-12-24T23:07:46.813Z,101260.28
2022-12-24T23:10:15.123Z,101256.75
2022-12-24T23:13:00.824Z,101246.16
2022-12-24T23:15:29.321Z,101259.38
2022-12-24T23:17:57.638Z,101255.84
2022-12-24T23:20:27.360Z,101262.03
2022-12-24T23:22:55.641Z,101265.56
2022-12-24T23:25:24.252Z,101262.00
2022-12-24T23:27:52.628Z,101254.03
2022-12-24T23:30:21.043Z,101262.88
2022-12-24T23:32:49.361Z,101253.13
2022-12-24T23:35:17.769Z,101239.88
2022-12-24T23:37:47.470Z,101251.38
2022-12-24T23:40:15.908Z,101237.25
2022-12-24T23:42:44.405Z,101244.31
2022-12-24T23:45:13.316Z,101243.44
2022-12-24T23:47:41.621Z,101243.47
2022-12-24T23:50:11.898Z,101224.94
2022-12-24T23:52:40.209Z,101246.09
2022-12-24T23:55:10.536Z,101228.41
2022-12-24T23:57:38.831Z,101209.91
